createdAt,value
2023-01-15T00:02:19.327Z,7.50
2023-01-15T00:12:25.179Z,8.30
2023-01-15T00:22:31.536Z,6.00
2023-01-15T00:32:37.173Z,11.10
2023-01-15T00:42:43.104Z,7.40
2023-01-15T00:52:52.801Z,7.70
2023-01-15T01:02:58.934Z,5.90
2023-01-15T01:13:04.859Z,7.20
2023-01-15T01:23:10.812Z,6.20
2023-01-15T01:33:17.046Z,6.30
2023-01-15T01:43:25.203Z,5.50
2023-01-15T01:53:33.502Z,5.60
2023-01-15T02:03:41.196Z,5.20
2023-01-15T02:13:52.329Z,5.30
2023-01-15T02:24:10.414Z,4.70
2023-01-15T02:34:22.158Z,5.20
2023-01-15T02:44:30.779Z,4.40
2023-01-15T02:54:41.756Z,3.40
2023-01-15T03:04:54.121Z,4.10
2023-01-15T03:15:10.623Z,6.20
2023-01-15T03:25:21.997Z,3.60
2023-01-15T03:35:49.012Z,5.10
2023-01-15T03:46:00.582Z,5.00
2023-01-15T03:56:15.929Z,4.90
2023-01-15T04:06:22.418Z,2.30
2023-01-15T04:16:30.151Z,3.30
2023-01-15T04:26:35.665Z,3.60
2023-01-15T04:36:42.766Z,3.90
2023-01-15T04:46:49.309Z,6.60
2023-01-15T04:56:56.051Z,2.00
2023-01-15T05:07:04.116Z,2.30
2023-01-15T05:17:09.883Z,5.50
2023-01-15T05:27:15.885Z,4.10
2023-01-15T05:37:21.985Z,4.50
2023-01-15T05:47:27.921Z,4.00
2023-01-15T05:57:34.068Z,3.70
2023-01-15T06:07:39.893Z,3.10
2023-01-15T06:17:45.745Z,5.70
2023-01-15T06:27:51.732Z,3.20
2023-01-15T06:37:57.408Z,5.60
2023-01-15T06:48:06.835Z,2.90
2023-01-15T06:58:12.665Z,2.90
2023-01-15T07:08:18.416Z,4.10
2023-01-15T07:18:24.057Z,2.70
2023-01-15T07:28:30.958Z,2.90
2023-01-15T07:38:37.363Z,2.70
2023-01-15T07:49:00.821Z,3.60
2023-01-15T07:59:06.600Z,3.40
2023-01-15T08:09:13.263Z,3.90
2023-01-15T08:19:19.195Z,4.00
2023-01-15T08:29:25.056Z,5.60
2023-01-15T08:39:31.016Z,4.50
2023-01-15T08:49:36.775Z,6.90
2023-01-15T08:59:43.971Z,6.20
2023-01-15T09:09:49.572Z,6.10
2023-01-15T09:19:55.416Z,4.70
2023-01-15T09:30:07.332Z,5.10
2023-01-15T09:40:33.334Z,5.50
2023-01-15T09:50:50.784Z,5.10
2023-01-15T10:00:56.654Z,5.60
2023-01-15T10:11:07.038Z,7.20
2023-01-15T10:21:30.611Z,6.70
2023-01-15T10:31:52.185Z,4.60
2023-01-15T10:42:14.195Z,6.10
2023-01-15T10:52:28.896Z,11.80
2023-01-15T11:02:41.088Z,8.80
2023-01-15T11:13:12.777Z,5.30
2023-01-15T11:23:23.325Z,4.30
2023-01-15T11:33:32.167Z,5.50
2023-01-15T11:43:55.382Z,7.20
2023-01-15T11:54:05.750Z,5.20
2023-01-15T12:04:30.673Z,4.60
2023-01-15T12:14:59.889Z,5.80
2023-01-15T12:25:36.013Z,6.60
2023-01-15T12:35:46.605Z,5.20
2023-01-15T12:45:57.597Z,4.50
2023-01-15T12:56:09.393Z,5.80
2023-01-15T13:06:17.886Z,3.90
2023-01-15T13:16:29.140Z,6.50
2023-01-15T13:26:52.196Z,5.30
2023-01-15T13:37:04.781Z,6.50
2023-01-15T13:47:13.283Z,4.70
2023-01-15T13:57:27.618Z,4.10
2023-01-15T14:07:38.244Z,4.90
2023-01-15T14:18:08.894Z,5.80
2023-01-15T14:28:41.875Z,5.10
2023-01-15T14:38:52.513Z,8.40
2023-01-15T14:48:58.569Z,7.40
2023-01-15T14:59:10.619Z,7.00
2023-01-15T15:09:23.071Z,9.50
2023-01-15T15:19:36.255Z,8.70
2023-01-15T15:29:42.361Z,13.80
2023-01-15T15:39:56.385Z,12.50
2023-01-15T15:50:02.639Z,12.80
2023-01-15T16:00:21.812Z,5.80
2023-01-15T16:10:32.763Z,9.30
2023-01-15T16:20:40.369Z,14.10
2023-01-15T16:30:46.736Z,5.80
2023-01-15T16:40:53.664Z,4.20
2023-01-15T16:50:59.856Z,3.00
2023-01-15T17:01:31.418Z,3.00
2023-01-15T17:11:37.608Z,3.80
2023-01-15T17:21:47.407Z,3.70
2023-01-15T17:31:53.490Z,4.40
2023-01-15T17:42:00.013Z,5.20
2023-01-15T17:52:08.619Z,3.60
2023-01-15T18:02:34.451Z,4.90
2023-01-15T18:12:40.424Z,10.60
2023-01-15T18:22:46.301Z,11.60
2023-01-15T18:32:52.590Z,8.90
2023-01-15T18:43:16.141Z,12.10
2023-01-15T18:53:21.988Z,8.50
2023-01-15T19:03:28.264Z,9.70
2023-01-15T19:13:34.311Z,11.40
2023-01-15T19:23:40.071Z,13.90
2023-01-15T19:33:45.647Z,8.50
2023-01-15T19:44:08.908Z,6.70
2023-01-15T19:54:36.554Z,6.10
2023-01-15T20:04:42.655Z,7.50
2023-01-15T20:14:48.510Z,6.80
2023-01-15T20:24:54.387Z,9.10
2023-01-15T20:35:00.294Z,7.10
2023-01-15T20:45:10.985Z,6.90
2023-01-15T20:55:17.854Z,6.60
2023-01-15T21:05:23.696Z,7.30
2023-01-15T21:15:29.437Z,11.00
2023-01-15T21:25:35.303Z,7.50
2023-01-15T21:35:42.515Z,6.30
2023-01-15T21:45:48.427Z,8.20
2023-01-15T21:55:54.437Z,9.70
2023-01-15T22:06:05.724Z,6.80
2023-01-15T22:16:11.645Z,7.60
2023-01-15T22:26:21.515Z,7.00
2023-01-15T22:36:27.467Z,7.50
2023-01-15T22:46:33.372Z,7.10
2023-01-15T22:56:39.152Z,7.20
2023-01-15T23:06:45.388Z,8.10
2023-01-15T23:16:51.457Z,8.00
2023-01-15T23:26:57.395Z,8.30
2023-01-15T23:37:03.545Z,5.70
2023-01-15T23:47:10.470Z,5.80
